Meteo Giornale » Osservazioni meteo Stati Uniti (USA) » Ardmore
ore: 10:50 - Osservazioni Meteo Ardmore
Lat. 34° 18' N Lon. 97° 1' W Alt. 232 metri s.l.m.
35 °C
Sereno
Temp. 24 Ore
20 °C
40 °C
Nord
0 Km/h
Dew point 20 °C
Umidità 41 %
Visibilità 10 Km
Il sole sorge alle ore 07:00
Il sole tramonta alle ore 19:55
| Data e Ora | Cielo e Fenomeni | T °C | DP °C | Um. % | Pres. hPa | Vis. km | Vento km/h | |
|---|---|---|---|---|---|---|---|---|
| Oggi h: 10:50 | Sereno | 35 | 20 | 41 | 1017 | 10 | N 0 | |
| Oggi h: 09:50 | Sereno | 32 | 20 | 49 | 1017 | 10 | S/SO 9.3 | |
| Oggi h: 07:50 | Sereno | 28 | 19 | 58 | 1017 | 10 | N 0 | |
| Oggi h: 06:50 | Sereno | 20 | 18 | 88 | 1015 | 10 | N 0 | |
| Oggi h: 06:35 | Sereno | 22 | 18 | 78 | 1015 | 10 | N 0 | |
| Oggi h: 06:10 | Sereno | 21 | 18 | 82 | 1015 | 10 | N 0 | |
| Oggi h: 05:55 | Sereno | 21 | 17 | 77 | 1015 | 10 | N 0 | |
| Oggi h: 05:35 | Sereno | 22 | 17 | 73 | 1015 | 10 | N 0 | |
| Oggi h: 05:15 | Sereno | 22 | 17 | 73 | 1015 | 10 | N 0 | |
| Oggi h: 04:55 | Sereno | 22 | 17 | 73 | 1015 | 10 | N 0 | |
| Oggi h: 04:35 | Sereno | 22 | 18 | 78 | 1014 | 10 | N 0 | |
| Oggi h: 04:15 | Sereno | 21 | 17 | 77 | 1014 | 10 | N 0 | |
| Oggi h: 03:55 | Sereno | 22 | 17 | 73 | 1014 | 10 | N 0 | |
| Oggi h: 03:35 | Sereno | 22 | 17 | 73 | 1014 | 10 | N 0 | |
| Oggi h: 03:15 | Sereno | 23 | 17 | 68 | 1014 | 10 | N 0 | |
| Oggi h: 02:55 | Sereno | 23 | 17 | 68 | 1014 | 10 | N 0 | |
| Oggi h: 02:35 | Sereno | 23 | 17 | 68 | 1014 | 10 | N 0 | |
| Oggi h: 02:15 | Sereno | 24 | 17 | 64 | 1014 | 10 | N 0 | |
| Oggi h: 01:55 | Sereno | 23 | 17 | 68 | 1014 | 10 | N 0 | |
| Oggi h: 01:35 | Sereno | 24 | 17 | 64 | 1014 | 10 | N 0 | |
| Oggi h: 01:15 | Sereno | 24 | 17 | 64 | 1014 | 10 | N 0 | |
| Oggi h: 00:55 | Sereno | 24 | 17 | 64 | 1014 | 10 | N 0 | |
| Oggi h: 00:35 | Sereno | 25 | 17 | 61 | 1014 | 10 | N 0 | |
| Oggi h: 00:15 | Sereno | 26 | 17 | 57 | 1014 | 10 | N 0 | |
| Ieri h: 23:55 | Sereno | 27 | 16 | 50 | 1014 | 10 | N 0 | |
| Ieri h: 23:35 | Sereno | 27 | 17 | 54 | 1014 | 10 | N 0 | |
| Ieri h: 23:15 | Sereno | 27 | 17 | 54 | 1014 | 10 | N 0 | |
| Ieri h: 22:55 | Sereno | 27 | 17 | 54 | 1014 | 10 | N 0 | |
| Ieri h: 22:35 | Sereno | 28 | 17 | 51 | 1013 | 10 | N 0 | |
| Ieri h: 22:15 | Sereno | 28 | 17 | 51 | 1013 | 10 | N 0 | |
| Ieri h: 15:50 | Sereno | 40 | 15 | 23 | 1012 | 10 | S/SO 13 | |
| Ieri h: 13:50 | Sereno | 40 | 17 | 26 | 1014 | 10 | S/SO 22.2 | |
| Ieri h: 12:50 | Sereno | 38 | 19 | 33 | 1015 | 10 | S/SE 20.3 | |
| Ieri h: 11:50 | Sereno | 37 | 19 | 35 | 1016 | 10 | S/SO 14.8 | |



